Time;durP1;ratioP1;P1;durP2;ratioP2;P2;SDS_P1;SDS_P2;PMS_P1;PMS_P2;Temp;Humidity;BMP_temperature;BMP_pressure;BME280_temperature;BME280_humidity;BME280_pressure;Samples;Min_cycle;Max_cycle;Signal;HPM_P1;HPM_P2
2021/09/19 00:01:57;;;;;;;8.43;5.25;;;15.30;89.20;;;;;;5054835;28;20025;-82
2021/09/19 00:04:23;;;;;;;5.93;4.93;;;15.30;89.20;;;;;;5055500;28;20017;-82
2021/09/19 00:06:49;;;;;;;8.93;4.50;;;15.20;89.20;;;;;;5054270;28;20063;-82
2021/09/19 00:09:14;;;;;;;8.05;5.00;;;15.20;89.40;;;;;;5033791;28;20052;-82
2021/09/19 00:11:40;;;;;;;7.85;4.50;;;15.20;90.00;;;;;;5034238;28;20049;-83
2021/09/19 00:14:06;;;;;;;5.75;4.60;;;15.20;89.50;;;;;;5026182;28;20030;-83
2021/09/19 00:16:32;;;;;;;6.32;4.63;;;15.20;89.50;;;;;;5033299;28;20441;-82
2021/09/19 00:18:58;;;;;;;8.45;4.40;;;15.20;89.60;;;;;;5036921;28;20051;-82
2021/09/19 00:21:23;;;;;;;5.07;4.32;;;15.20;90.10;;;;;;5037394;28;20062;-82
2021/09/19 00:23:49;;;;;;;6.32;4.28;;;15.20;89.60;;;;;;5037401;28;20032;-82
2021/09/19 00:26:14;;;;;;;6.85;4.75;;;15.20;89.60;;;;;;5037239;28;20033;-82
2021/09/19 00:28:41;;;;;;;7.72;4.97;;;15.20;89.50;;;;;;5037466;28;20106;-82
2021/09/19 00:31:07;;;;;;;8.18;4.15;;;15.20;89.60;;;;;;5037113;28;20541;-82
2021/09/19 00:33:33;;;;;;;6.65;4.82;;;15.10;89.70;;;;;;5037183;28;20087;-82
2021/09/19 00:35:58;;;;;;;9.32;5.00;;;15.10;89.80;;;;;;5037066;28;20076;-82
2021/09/19 00:38:24;;;;;;;6.88;4.20;;;15.10;89.90;;;;;;5037167;28;20119;-82
2021/09/19 00:40:49;;;;;;;7.85;4.95;;;15.00;90.00;;;;;;5054957;28;20377;-82
2021/09/19 00:43:15;;;;;;;6.63;5.15;;;15.00;90.30;;;;;;5054804;28;20033;-82
2021/09/19 00:45:41;;;;;;;10.68;4.85;;;15.00;90.00;;;;;;5054834;28;20057;-82
2021/09/19 00:48:06;;;;;;;7.90;4.78;;;14.90;90.10;;;;;;5036999;28;20466;-82
2021/09/19 00:50:32;;;;;;;5.18;4.47;;;15.00;90.10;;;;;;5037138;28;20078;-82
2021/09/19 00:52:58;;;;;;;6.82;4.30;;;14.90;90.10;;;;;;5054837;28;20040;-82
2021/09/19 00:55:24;;;;;;;7.85;5.47;;;14.90;90.20;;;;;;5036711;28;20036;-82
2021/09/19 00:57:54;;;;;;;7.20;5.03;;;14.80;90.20;;;;;;5036390;28;20470;-82
2021/09/19 01:00:28;;;;;;;7.78;5.60;;;14.80;90.30;;;;;;5036464;28;20557;-82
2021/09/19 01:02:55;;;;;;;8.90;5.30;;;14.80;90.40;;;;;;5054503;28;20382;-82
2021/09/19 01:05:21;;;;;;;9.60;5.65;;;14.80;90.40;;;;;;5036416;28;20029;-82
2021/09/19 01:07:48;;;;;;;7.97;5.75;;;14.80;90.40;;;;;;5054473;28;20024;-82
2021/09/19 01:10:17;;;;;;;9.52;5.72;;;14.70;90.40;;;;;;5054054;28;20067;-82
2021/09/19 01:12:43;;;;;;;7.38;4.97;;;14.80;90.50;;;;;;5053983;28;20087;-82
2021/09/19 01:15:11;;;;;;;11.35;6.05;;;14.70;90.40;;;;;;5032342;28;20057;-82
2021/09/19 01:17:39;;;;;;;6.68;4.82;;;14.70;90.50;;;;;;5045342;28;20021;-82
2021/09/19 01:20:12;;;;;;;6.53;4.57;;;14.70;90.50;;;;;;5032722;28;20077;-82
2021/09/19 01:22:39;;;;;;;8.63;4.55;;;14.70;90.50;;;;;;5031694;28;20029;-82
2021/09/19 01:25:08;;;;;;;8.02;4.70;;;14.70;90.50;;;;;;5053282;28;20021;-82
2021/09/19 01:27:34;;;;;;;5.95;4.68;;;14.70;90.60;;;;;;5035749;28;20473;-82
2021/09/19 01:30:00;;;;;;;5.38;4.45;;;14.60;90.60;;;;;;5032110;28;20044;-82
2021/09/19 01:32:25;;;;;;;9.98;4.93;;;14.60;90.50;;;;;;5035434;28;20041;-82
2021/09/19 01:34:52;;;;;;;6.85;4.63;;;14.70;90.60;;;;;;5035491;28;20033;-82
2021/09/19 01:37:19;;;;;;;9.10;5.40;;;14.70;90.60;;;;;;5032134;28;20021;-82
2021/09/19 01:39:46;;;;;;;8.35;4.78;;;14.60;90.50;;;;;;5033481;28;20037;-82
2021/09/19 01:42:12;;;;;;;7.75;5.13;;;14.60;90.60;;;;;;5032321;28;20026;-82
2021/09/19 01:44:39;;;;;;;12.57;4.97;;;14.60;90.60;;;;;;5032375;28;20447;-82
2021/09/19 01:47:05;;;;;;;8.55;4.85;;;14.60;90.70;;;;;;5015966;28;20030;-82
2021/09/19 01:49:31;;;;;;;7.50;5.10;;;14.60;90.70;;;;;;5033947;28;20051;-82
2021/09/19 01:51:58;;;;;;;6.60;4.30;;;14.60;90.70;;;;;;5052388;28;20119;-82
2021/09/19 01:54:24;;;;;;;7.57;4.47;;;14.60;91.00;;;;;;5034090;28;20498;-82
2021/09/19 01:56:49;;;;;;;10.35;4.85;;;14.60;90.70;;;;;;5051080;28;20079;-82
2021/09/19 01:59:15;;;;;;;8.52;5.03;;;14.60;90.70;;;;;;5034787;28;20033;-82
2021/09/19 02:01:41;;;;;;;9.18;5.07;;;14.50;90.70;;;;;;5051215;28;20017;-82
2021/09/19 02:04:06;;;;;;;6.65;4.20;;;14.50;90.70;;;;;;5052239;28;20028;-82
2021/09/19 02:06:32;;;;;;;6.28;4.20;;;14.50;90.70;;;;;;5032347;28;20041;-82
2021/09/19 02:08:58;;;;;;;8.82;4.60;;;14.40;90.80;;;;;;5051844;28;20537;-82
2021/09/19 02:11:23;;;;;;;8.85;5.25;;;14.40;90.80;;;;;;5051469;28;20033;-82
2021/09/19 02:13:50;;;;;;;5.90;3.95;;;14.50;90.80;;;;;;5051523;28;20032;-82
2021/09/19 02:16:20;;;;;;;8.45;4.97;;;14.40;90.80;;;;;;5051571;28;20381;-82
2021/09/19 02:18:47;;;;;;;8.93;5.50;;;14.40;90.80;;;;;;5033226;28;20021;-82
2021/09/19 02:21:13;;;;;;;10.82;5.53;;;14.40;90.80;;;;;;5033338;28;20500;-82
2021/09/19 02:23:39;;;;;;;6.25;4.25;;;14.40;90.80;;;;;;5030116;28;20033;-82
2021/09/19 02:26:05;;;;;;;9.93;4.90;;;14.40;90.90;;;;;;5047128;28;20025;-82
2021/09/19 02:28:31;;;;;;;9.18;5.25;;;14.40;91.20;;;;;;5051242;28;20029;-82
2021/09/19 02:30:57;;;;;;;7.90;5.20;;;14.40;91.00;;;;;;5033620;28;20025;-82
2021/09/19 02:33:23;;;;;;;8.70;5.10;;;14.30;90.90;;;;;;5049748;28;20044;-82
2021/09/19 02:35:48;;;;;;;6.03;4.53;;;14.30;91.00;;;;;;5050082;28;20100;-82
2021/09/19 02:38:14;;;;;;;11.80;4.90;;;14.30;91.00;;;;;;5050711;28;20112;-82
2021/09/19 02:40:40;;;;;;;8.40;5.13;;;14.30;91.00;;;;;;5035397;28;20029;-82
2021/09/19 02:43:06;;;;;;;6.95;4.82;;;14.30;91.00;;;;;;5036333;28;20021;-82
2021/09/19 02:45:31;;;;;;;8.35;5.65;;;14.30;91.10;;;;;;5037506;28;20086;-82
2021/09/19 02:47:57;;;;;;;5.50;4.35;;;14.20;91.10;;;;;;5054804;28;20039;-82
2021/09/19 02:50:24;;;;;;;8.95;5.00;;;14.30;91.20;;;;;;5034203;28;20474;-82
2021/09/19 02:52:50;;;;;;;8.05;4.70;;;14.30;91.10;;;;;;5035532;28;20095;-82
2021/09/19 02:55:18;;;;;;;10.50;5.63;;;14.20;91.10;;;;;;5037075;28;20029;-82
2021/09/19 02:57:44;;;;;;;11.10;4.88;;;14.20;91.10;;;;;;5038267;28;20055;-82
2021/09/19 03:00:13;;;;;;;6.82;4.80;;;14.20;91.20;;;;;;5034621;28;20029;-82
2021/09/19 03:02:39;;;;;;;8.10;5.10;;;14.20;91.20;;;;;;5055424;28;20082;-82
2021/09/19 03:05:06;;;;;;;7.78;5.20;;;14.20;91.20;;;;;;5055288;28;20051;-82
2021/09/19 03:07:32;;;;;;;10.65;5.13;;;14.20;91.30;;;;;;5054107;28;20033;-82
2021/09/19 03:09:58;;;;;;;8.90;4.80;;;14.20;91.30;;;;;;5024559;28;20866;-82
2021/09/19 03:12:25;;;;;;;9.25;4.20;;;14.20;91.30;;;;;;5034166;28;20072;-82
2021/09/19 03:14:50;;;;;;;6.03;4.72;;;14.20;91.30;;;;;;5034853;28;20034;-82
2021/09/19 03:17:16;;;;;;;9.15;4.82;;;14.20;91.30;;;;;;5036090;28;20503;-82
2021/09/19 03:19:42;;;;;;;11.48;5.00;;;14.20;91.30;;;;;;5038405;28;20047;-82
2021/09/19 03:22:07;;;;;;;9.63;4.82;;;14.20;91.30;;;;;;5038563;28;20053;-82
2021/09/19 03:24:33;;;;;;;9.60;4.78;;;14.20;91.30;;;;;;5005579;28;20177;-82
2021/09/19 03:26:58;;;;;;;8.35;4.97;;;14.10;91.30;;;;;;5021935;28;20079;-82
2021/09/19 03:29:25;;;;;;;7.55;5.38;;;14.10;91.30;;;;;;5027991;28;20037;-82
2021/09/19 03:31:51;;;;;;;10.38;5.63;;;14.10;91.40;;;;;;5022249;28;20086;-82
2021/09/19 03:34:16;;;;;;;9.15;5.40;;;14.10;91.40;;;;;;5056135;28;20409;-82
2021/09/19 03:36:42;;;;;;;11.95;5.60;;;14.10;91.40;;;;;;5021985;28;20086;-82
2021/09/19 03:39:07;;;;;;;7.43;4.65;;;14.10;91.50;;;;;;5038339;28;20043;-82
2021/09/19 03:41:33;;;;;;;9.57;5.20;;;14.10;91.40;;;;;;5038272;28;20025;-82
2021/09/19 03:43:59;;;;;;;6.45;4.90;;;14.00;91.40;;;;;;5055875;28;20024;-82
2021/09/19 03:46:28;;;;;;;7.05;4.97;;;14.10;91.40;;;;;;5021714;28;20397;-82
2021/09/19 03:48:54;;;;;;;9.13;5.47;;;14.10;91.50;;;;;;5031417;28;20103;-82
2021/09/19 03:51:19;;;;;;;6.63;4.63;;;14.00;91.40;;;;;;5018024;28;20041;-82
2021/09/19 03:53:45;;;;;;;9.13;5.70;;;14.00;91.40;;;;;;5039399;28;20033;-82
2021/09/19 03:56:11;;;;;;;7.88;5.00;;;14.00;91.50;;;;;;5037379;28;20115;-82
2021/09/19 03:58:37;;;;;;;7.63;5.15;;;14.00;91.50;;;;;;5019744;28;20095;-82
2021/09/19 04:01:03;;;;;;;8.85;4.90;;;14.00;91.60;;;;;;5054390;28;20025;-82
2021/09/19 04:03:29;;;;;;;11.25;5.55;;;14.00;91.60;;;;;;5037528;28;20499;-82
2021/09/19 04:05:54;;;;;;;10.70;4.97;;;13.90;91.60;;;;;;5037973;28;20120;-82
2021/09/19 04:08:20;;;;;;;10.73;5.15;;;13.90;91.60;;;;;;5054112;28;20136;-82
2021/09/19 04:10:45;;;;;;;7.88;5.50;;;14.00;91.60;;;;;;5055728;28;20532;-82
2021/09/19 04:13:11;;;;;;;10.63;5.03;;;13.90;91.60;;;;;;5054083;28;20032;-82
2021/09/19 04:15:37;;;;;;;10.82;4.97;;;13.90;91.60;;;;;;5055149;28;20031;-82
2021/09/19 04:18:04;;;;;;;8.75;5.18;;;13.90;91.60;;;;;;5055261;28;20028;-82
2021/09/19 04:20:29;;;;;;;12.40;5.28;;;13.90;91.60;;;;;;5037394;28;20886;-82
2021/09/19 04:22:55;;;;;;;11.90;5.30;;;13.90;91.60;;;;;;5037438;28;20178;-82
2021/09/19 04:25:20;;;;;;;11.10;6.03;;;13.80;91.60;;;;;;5033919;28;20033;-82
2021/09/19 04:27:46;;;;;;;15.38;5.30;;;13.80;91.70;;;;;;4985135;28;20386;-82
2021/09/19 04:30:12;;;;;;;9.80;4.80;;;13.80;91.70;;;;;;5019345;28;20039;-82
2021/09/19 04:32:38;;;;;;;13.10;4.40;;;13.80;91.70;;;;;;5033713;28;20033;-82
2021/09/19 04:35:04;;;;;;;9.73;5.05;;;13.80;91.80;;;;;;5007480;28;20029;-82
2021/09/19 04:37:30;;;;;;;8.77;5.25;;;13.80;91.90;;;;;;5030599;28;20055;-82
2021/09/19 04:39:56;;;;;;;9.80;5.38;;;13.70;91.80;;;;;;5053778;28;20489;-82
2021/09/19 04:42:22;;;;;;;8.75;5.00;;;13.70;91.80;;;;;;5053535;28;20025;-82
2021/09/19 04:44:49;;;;;;;9.77;4.60;;;13.70;91.80;;;;;;5025560;28;20121;-82
2021/09/19 04:47:15;;;;;;;10.35;5.22;;;13.70;91.80;;;;;;5017027;28;20028;-82
2021/09/19 04:49:41;;;;;;;8.48;5.13;;;13.70;91.80;;;;;;5017225;28;20033;-82
2021/09/19 04:52:07;;;;;;;9.60;4.47;;;13.60;92.00;;;;;;5034495;28;20057;-82
2021/09/19 04:54:33;;;;;;;10.00;5.47;;;13.60;91.90;;;;;;5034786;28;20081;-82
2021/09/19 04:56:59;;;;;;;8.32;4.78;;;13.60;91.90;;;;;;5016889;28;20498;-82
2021/09/19 04:59:25;;;;;;;12.73;5.57;;;13.60;91.90;;;;;;5016817;28;20034;-82
2021/09/19 05:01:50;;;;;;;5.97;4.07;;;13.50;91.90;;;;;;5033414;28;20385;-82
2021/09/19 05:04:17;;;;;;;9.43;4.90;;;13.50;92.00;;;;;;5034094;28;20030;-82
2021/09/19 05:06:42;;;;;;;10.65;5.63;;;13.50;92.00;;;;;;5033329;28;20021;-82
2021/09/19 05:09:08;;;;;;;8.90;4.35;;;13.50;92.00;;;;;;5016816;28;20364;-82
2021/09/19 05:11:34;;;;;;;8.77;4.75;;;13.60;92.00;;;;;;5016784;28;20040;-82
2021/09/19 05:14:00;;;;;;;9.25;5.35;;;13.50;92.00;;;;;;5027424;28;20398;-82
2021/09/19 05:16:26;;;;;;;7.82;5.03;;;13.50;92.00;;;;;;5052235;28;20497;-82
2021/09/19 05:18:52;;;;;;;7.65;4.55;;;13.50;92.00;;;;;;5035608;28;20033;-82
2021/09/19 05:21:18;;;;;;;8.98;5.05;;;13.50;92.00;;;;;;5054249;28;20055;-82
2021/09/19 05:23:44;;;;;;;9.50;5.45;;;13.50;92.00;;;;;;5036280;28;20108;-82
2021/09/19 05:26:09;;;;;;;7.07;5.03;;;13.50;92.00;;;;;;5036247;28;20502;-82
2021/09/19 05:28:35;;;;;;;12.27;5.80;;;13.50;92.00;;;;;;5036102;28;20036;-82
2021/09/19 05:31:01;;;;;;;10.88;6.13;;;13.50;92.00;;;;;;5054018;28;20025;-82
2021/09/19 05:33:26;;;;;;;10.02;5.82;;;13.50;92.30;;;;;;5003400;28;20465;-82
2021/09/19 05:35:52;;;;;;;10.38;5.85;;;13.40;92.00;;;;;;5019859;28;20496;-82
2021/09/19 05:38:18;;;;;;;10.25;5.28;;;13.40;92.00;;;;;;5032805;28;20033;-82
2021/09/19 05:40:44;;;;;;;8.38;5.38;;;13.40;92.00;;;;;;5040749;28;20017;-82
2021/09/19 05:43:10;;;;;;;7.22;5.32;;;13.50;92.10;;;;;;5052476;28;20371;-82
2021/09/19 05:45:36;;;;;;;9.82;6.15;;;13.50;92.00;;;;;;5051398;28;20029;-82
2021/09/19 05:48:01;;;;;;;12.38;6.15;;;13.50;92.00;;;;;;5030707;28;20394;-83
2021/09/19 05:50:27;;;;;;;12.77;6.07;;;13.50;92.00;;;;;;5017754;28;20529;-82
2021/09/19 05:52:53;;;;;;;14.00;6.13;;;13.50;92.00;;;;;;5001334;28;20111;-82
2021/09/19 05:55:19;;;;;;;14.10;6.72;;;13.50;92.00;;;;;;5019177;28;20045;-82
2021/09/19 05:57:44;;;;;;;12.80;5.82;;;13.50;92.10;;;;;;5035597;28;20025;-82
2021/09/19 06:00:11;;;;;;;11.13;5.57;;;13.50;92.10;;;;;;5035528;28;20392;-82
2021/09/19 06:02:37;;;;;;;11.40;5.70;;;13.50;92.10;;;;;;5052235;28;20040;-82
2021/09/19 06:05:03;;;;;;;10.63;5.13;;;13.60;92.00;;;;;;5052490;28;20396;-82
2021/09/19 06:07:29;;;;;;;12.10;6.57;;;13.60;92.00;;;;;;5035501;28;20484;-82
2021/09/19 06:09:55;;;;;;;10.80;6.32;;;13.60;92.00;;;;;;5053481;28;20065;-82
2021/09/19 06:12:20;;;;;;;13.95;6.75;;;13.60;91.90;;;;;;5035459;28;20120;-82
2021/09/19 06:14:46;;;;;;;10.68;5.68;;;13.60;92.20;;;;;;5034648;28;20367;-82
2021/09/19 06:17:12;;;;;;;11.48;6.25;;;13.70;91.90;;;;;;5051963;28;20038;-82
2021/09/19 06:19:38;;;;;;;14.70;6.45;;;13.70;91.90;;;;;;5035480;28;20028;-82
2021/09/19 06:22:04;;;;;;;10.60;5.82;;;13.70;92.00;;;;;;5053145;28;20025;-82
2021/09/19 06:24:31;;;;;;;10.35;5.53;;;13.70;91.90;;;;;;5053260;28;20031;-82
2021/09/19 06:27:01;;;;;;;14.07;6.82;;;13.80;91.90;;;;;;5053252;28;20072;-82
2021/09/19 06:29:27;;;;;;;12.10;5.35;;;13.80;91.80;;;;;;5035012;28;20033;-82
2021/09/19 06:31:53;;;;;;;12.25;5.95;;;13.90;91.80;;;;;;5018833;28;20029;-82
2021/09/19 06:34:19;;;;;;;10.15;5.57;;;13.90;91.80;;;;;;5018265;28;20040;-82
2021/09/19 06:36:45;;;;;;;14.07;5.80;;;14.00;91.80;;;;;;5051279;28;20033;-82
2021/09/19 06:39:10;;;;;;;12.30;5.53;;;14.10;91.70;;;;;;5047618;28;20037;-82
2021/09/19 06:41:36;;;;;;;8.55;5.05;;;14.20;91.60;;;;;;5015351;28;20025;-82
2021/09/19 06:44:02;;;;;;;6.68;4.25;;;14.20;91.50;;;;;;5015300;28;20501;-82
2021/09/19 06:46:31;;;;;;;7.95;5.00;;;14.30;91.50;;;;;;5026605;28;20086;-82
2021/09/19 06:48:58;;;;;;;9.30;4.10;;;14.30;91.50;;;;;;5035025;28;20692;-83
2021/09/19 06:51:24;;;;;;;8.50;4.78;;;14.30;91.50;;;;;;5035034;28;20040;-83
2021/09/19 06:53:51;;;;;;;6.10;4.20;;;14.40;91.50;;;;;;5034936;28;20053;-82
2021/09/19 06:56:18;;;;;;;9.70;3.85;;;14.50;91.40;;;;;;5034941;28;20167;-82
2021/09/19 06:58:44;;;;;;;7.20;4.28;;;14.50;91.30;;;;;;5031493;28;20482;-78
2021/09/19 07:01:10;;;;;;;10.93;3.83;;;14.60;91.30;;;;;;5032754;28;20041;-79
2021/09/19 07:03:35;;;;;;;7.55;3.55;;;14.60;91.20;;;;;;5034434;28;20033;-79
2021/09/19 07:06:01;;;;;;;4.95;3.42;;;14.60;91.20;;;;;;5034755;28;20025;-80
2021/09/19 07:08:27;;;;;;;4.15;3.08;;;14.70;91.10;;;;;;5031804;28;20057;-82
2021/09/19 07:10:53;;;;;;;7.40;3.75;;;14.70;91.10;;;;;;5018570;28;20143;-83
2021/09/19 07:13:21;;;;;;;5.93;3.58;;;14.70;91.00;;;;;;5052379;28;20068;-81
2021/09/19 07:15:52;;;;;;;5.10;3.60;;;14.70;91.10;;;;;;5052801;28;20493;-81
2021/09/19 07:18:19;;;;;;;7.68;3.08;;;14.80;91.10;;;;;;5031144;28;20060;-81
2021/09/19 07:20:45;;;;;;;4.07;2.60;;;14.80;91.10;;;;;;5032468;28;20401;-81
2021/09/19 07:23:11;;;;;;;5.72;3.20;;;14.90;91.00;;;;;;5043397;28;20025;-81
2021/09/19 07:25:36;;;;;;;4.63;3.10;;;14.90;90.90;;;;;;5044376;28;20033;-81
2021/09/19 07:28:04;;;;;;;3.85;3.15;;;15.00;90.90;;;;;;5053779;28;20029;-81
2021/09/19 07:30:30;;;;;;;4.85;2.92;;;15.10;90.90;;;;;;5055264;28;20029;-83
2021/09/19 07:32:57;;;;;;;5.57;2.78;;;15.20;90.80;;;;;;5056185;28;20029;-83
2021/09/19 07:35:22;;;;;;;3.20;2.72;;;15.20;90.80;;;;;;5056180;28;20021;-82
2021/09/19 07:37:49;;;;;;;3.60;2.90;;;15.30;90.70;;;;;;5038381;28;20070;-83
2021/09/19 07:40:15;;;;;;;4.97;3.50;;;15.40;90.60;;;;;;5055793;28;20033;-83
2021/09/19 07:42:41;;;;;;;5.63;3.30;;;15.50;90.50;;;;;;5054818;28;20374;-77
2021/09/19 07:45:07;;;;;;;4.32;2.80;;;15.60;90.40;;;;;;5038357;28;20033;-76
2021/09/19 07:47:33;;;;;;;5.20;2.90;;;15.70;90.30;;;;;;5056179;28;20096;-77
2021/09/19 07:49:59;;;;;;;4.43;3.05;;;15.70;90.30;;;;;;5054549;28;20036;-76
2021/09/19 07:52:26;;;;;;;6.05;2.70;;;15.80;90.30;;;;;;5053788;28;20428;-75
2021/09/19 07:54:54;;;;;;;3.00;2.70;;;15.90;90.20;;;;;;5055142;28;20048;-75
2021/09/19 07:57:24;;;;;;;4.57;3.47;;;16.00;90.10;;;;;;5037060;28;20064;-76
2021/09/19 07:59:51;;;;;;;2.97;2.60;;;16.10;90.00;;;;;;5055451;28;20028;-76
2021/09/19 08:02:17;;;;;;;3.58;2.80;;;16.10;89.50;;;;;;5055056;28;20469;-76
2021/09/19 08:04:43;;;;;;;6.95;2.88;;;16.20;89.40;;;;;;5055049;28;20074;-76
2021/09/19 08:07:09;;;;;;;5.43;2.67;;;16.30;89.20;;;;;;5055282;28;20418;-76
2021/09/19 08:09:35;;;;;;;3.40;2.72;;;16.40;88.60;;;;;;5034071;28;20041;-76
2021/09/19 08:12:00;;;;;;;3.00;2.47;;;16.50;88.30;;;;;;5034268;28;20036;-76
2021/09/19 08:14:26;;;;;;;3.63;2.67;;;16.60;88.00;;;;;;5034312;28;20406;-76
2021/09/19 08:16:52;;;;;;;2.92;2.60;;;16.70;87.80;;;;;;5033996;28;20450;-76
2021/09/19 08:19:18;;;;;;;2.38;2.13;;;16.80;87.50;;;;;;5035165;28;20386;-76
2021/09/19 08:21:45;;;;;;;4.28;2.67;;;16.90;87.30;;;;;;5036315;28;20021;-76
2021/09/19 08:24:11;;;;;;;7.95;2.78;;;16.90;87.20;;;;;;5054913;28;20021;-76
2021/09/19 08:26:37;;;;;;;5.60;2.67;;;17.00;87.00;;;;;;5055060;28;20024;-76
2021/09/19 08:29:03;;;;;;;3.33;2.53;;;17.10;86.80;;;;;;5053653;28;20028;-76
2021/09/19 08:31:29;;;;;;;5.07;2.50;;;17.10;86.60;;;;;;5054886;28;20040;-76
2021/09/19 08:33:55;;;;;;;4.70;2.70;;;17.20;86.60;;;;;;5054539;28;20041;-76
2021/09/19 08:36:21;;;;;;;3.17;2.80;;;17.20;87.20;;;;;;5054716;28;20355;-76
2021/09/19 08:38:47;;;;;;;2.72;2.22;;;17.30;86.30;;;;;;5036060;28;20044;-76
2021/09/19 08:41:15;;;;;;;2.83;2.55;;;17.40;86.20;;;;;;5054582;28;20036;-76
2021/09/19 08:43:42;;;;;;;6.57;2.95;;;17.50;85.90;;;;;;5054466;28;20500;-76
2021/09/19 08:46:08;;;;;;;4.53;2.92;;;17.50;85.60;;;;;;5033104;28;20033;-76
2021/09/19 08:48:34;;;;;;;3.28;2.75;;;17.60;85.00;;;;;;5023571;28;20055;-76
2021/09/19 08:51:00;;;;;;;2.80;2.58;;;17.80;85.20;;;;;;5036083;28;20481;-76
2021/09/19 08:53:28;;;;;;;2.47;2.28;;;18.00;83.90;;;;;;5048569;28;20133;-76
2021/09/19 08:55:54;;;;;;;2.35;2.10;;;18.40;82.70;;;;;;5036426;28;20545;-76
2021/09/19 08:58:20;;;;;;;4.03;2.40;;;18.70;81.80;;;;;;5053877;28;20416;-75
2021/09/19 09:00:49;;;;;;;7.97;2.30;;;18.90;80.70;;;;;;5035884;28;20029;-74
2021/09/19 09:03:22;;;;;;;5.97;2.70;;;19.10;79.80;;;;;;5036273;28;20047;-74
2021/09/19 09:05:55;;;;;;;4.68;1.90;;;19.30;78.90;;;;;;5051624;28;20040;-75
2021/09/19 09:08:22;;;;;;;2.65;2.15;;;19.30;78.80;;;;;;5053065;28;20031;-75
2021/09/19 09:10:49;;;;;;;3.28;2.00;;;19.50;78.30;;;;;;5035347;28;20025;-75
2021/09/19 09:13:21;;;;;;;2.00;1.70;;;19.60;78.30;;;;;;5053217;28;20393;-76
2021/09/19 09:15:50;;;;;;;3.38;2.20;;;19.90;77.80;;;;;;5035910;28;20021;-75
2021/09/19 09:18:31;;;;;;;;;;;20.00;76.20;;;;;;5053710;28;20090;-75
2021/09/19 09:21:06;;;;;;;2.15;1.48;;;20.00;74.70;;;;;;5053534;28;19954;-75
2021/09/19 09:23:41;;;;;;;2.03;1.77;;;20.00;75.90;;;;;;5050708;28;20052;-76
2021/09/19 09:26:27;;;;;;;1.83;1.48;;;20.10;75.10;;;;;;5049036;28;20025;-76
2021/09/19 09:29:06;;;;;;;1.90;1.80;;;20.10;75.20;;;;;;5047626;28;20021;-76
2021/09/19 09:31:52;;;;;;;4.57;1.95;;;20.20;74.80;;;;;;5049174;28;20021;-76
2021/09/19 09:34:20;;;;;;;3.15;1.88;;;20.20;74.30;;;;;;5023929;28;20021;-76
2021/09/19 09:36:53;;;;;;;4.18;1.55;;;20.30;73.90;;;;;;5048860;28;20013;-75
2021/09/19 09:39:26;;;;;;;2.10;1.58;;;20.40;73.50;;;;;;5048609;28;20056;-75
2021/09/19 09:41:54;;;;;;;2.67;1.35;;;20.50;73.70;;;;;;5049373;28;20017;-76
2021/09/19 09:44:24;;;;;;;2.13;1.23;;;20.50;73.20;;;;;;5030930;28;20446;-75
2021/09/19 09:46:51;;;;;;;1.58;1.27;;;20.60;73.10;;;;;;5048498;28;20056;-75
2021/09/19 09:49:34;;;;;;;1.52;1.20;;;20.70;73.00;;;;;;5048705;28;20520;-75
2021/09/19 09:52:27;;;;;;;1.33;1.23;;;20.80;72.00;;;;;;5049066;28;20041;-75
2021/09/19 09:54:59;;;;;;;3.33;1.30;;;20.80;71.80;;;;;;5026902;28;20068;-75
2021/09/19 09:57:51;;;;;;;1.55;1.30;;;20.90;71.10;;;;;;5049122;28;20021;-75
2021/09/19 10:00:20;;;;;;;3.60;1.75;;;20.90;70.60;;;;;;5046697;28;20016;-75
2021/09/19 10:02:48;;;;;;;2.13;1.60;;;21.00;70.80;;;;;;5048010;28;20061;-75
2021/09/19 10:05:15;;;;;;;1.92;1.30;;;21.00;70.40;;;;;;5048369;28;20040;-75
2021/09/19 10:07:42;;;;;;;2.53;1.08;;;21.00;70.70;;;;;;5048291;28;20029;-75
2021/09/19 10:10:43;;;;;;;1.63;1.40;;;21.10;70.30;;;;;;5048596;28;20036;-75
2021/09/19 10:13:10;;;;;;;1.58;1.30;;;21.20;70.30;;;;;;5009597;28;20037;-75
2021/09/19 10:15:36;;;;;;;1.90;1.42;;;21.30;69.70;;;;;;5033721;28;20029;-75
2021/09/19 10:18:02;;;;;;;1.80;1.40;;;21.30;69.60;;;;;;5052095;28;20532;-78
2021/09/19 10:20:38;;;;;;;1.75;1.10;;;21.30;69.90;;;;;;5035323;28;20025;-78
2021/09/19 10:23:21;;;;;;;1.20;1.10;;;21.40;69.70;;;;;;5033038;28;20037;-78
2021/09/19 10:25:52;;;;;;;1.80;1.30;;;21.50;68.70;;;;;;5033792;28;20025;-78
2021/09/19 10:28:26;;;;;;;5.07;1.20;;;21.50;68.70;;;;;;5017483;28;20040;-75
2021/09/19 10:31:18;;;;;;;4.63;1.50;;;21.50;68.40;;;;;;5051429;28;20060;-75
2021/09/19 10:33:52;;;;;;;4.55;1.48;;;21.60;67.40;;;;;;5051940;28;20017;-75
2021/09/19 10:36:32;;;;;;;2.47;2.10;;;21.70;67.30;;;;;;5051702;28;20021;-75
2021/09/19 10:39:19;;;;;;;2.33;1.67;;;21.70;67.00;;;;;;5026227;28;20060;-76
2021/09/19 10:42:15;;;;;;;1.15;1.00;;;21.60;67.20;;;;;;5031961;28;20026;-75
2021/09/19 10:44:44;;;;;;;1.17;1.00;;;21.60;66.60;;;;;;5014027;28;20121;-75
2021/09/19 10:47:25;;;;;;;1.38;1.08;;;21.60;65.50;;;;;;5031861;28;20441;-75
2021/09/19 10:50:10;;;;;;;1.98;1.08;;;21.70;66.10;;;;;;5030689;28;20043;-75
2021/09/19 10:52:41;;;;;;;2.38;1.30;;;21.80;65.50;;;;;;5014000;28;20397;-75
2021/09/19 10:55:29;;;;;;;1.80;1.20;;;21.80;64.80;;;;;;5035858;28;20064;-74
2021/09/19 10:57:55;;;;;;;;;;;21.90;66.20;;;;;;5030862;28;20029;-75
2021/09/19 11:00:21;;;;;;;2.65;1.58;;;22.00;65.70;;;;;;5013776;28;19919;-75
2021/09/19 11:03:10;;;;;;;2.53;1.48;;;22.00;65.50;;;;;;5034713;28;20023;-75
2021/09/19 11:05:44;;;;;;;3.38;1.58;;;21.80;66.30;;;;;;5045068;28;20036;-76
2021/09/19 11:08:16;;;;;;;2.20;1.70;;;21.70;66.80;;;;;;5055462;28;20052;-75
2021/09/19 11:10:44;;;;;;;6.03;1.90;;;21.60;66.80;;;;;;5037641;28;20053;-75
2021/09/19 11:13:20;;;;;;;3.30;1.90;;;21.50;67.10;;;;;;5055295;28;20029;-75
2021/09/19 11:16:17;;;;;;;2.10;1.50;;;21.40;66.70;;;;;;5055380;28;20087;-75
2021/09/19 11:18:49;;;;;;;1.90;1.33;;;21.30;66.80;;;;;;5042414;28;20040;-75
2021/09/19 11:21:37;;;;;;;2.22;1.40;;;21.30;67.20;;;;;;5055220;28;20418;-76
2021/09/19 11:24:14;;;;;;;1.52;1.10;;;21.40;66.70;;;;;;5037172;28;20032;-75
2021/09/19 11:26:46;;;;;;;1.77;1.30;;;21.40;65.90;;;;;;5055158;28;20098;-75
2021/09/19 11:29:14;;;;;;;1.52;1.10;;;21.60;65.30;;;;;;5037090;28;20032;-75
2021/09/19 11:31:42;;;;;;;1.55;1.30;;;21.60;65.10;;;;;;5037235;28;20028;-75
2021/09/19 11:34:12;;;;;;;2.72;1.27;;;21.80;65.50;;;;;;5054127;28;20112;-75
2021/09/19 11:36:48;;;;;;;1.65;1.33;;;21.70;65.00;;;;;;5017263;28;20021;-75
2021/09/19 11:39:15;;;;;;;1.10;0.95;;;21.80;63.70;;;;;;5017293;28;20072;-75
2021/09/19 11:41:42;;;;;;;2.55;1.10;;;21.90;63.60;;;;;;5035036;28;20055;-75
2021/09/19 11:44:11;;;;;;;3.40;1.25;;;22.00;64.40;;;;;;5000952;28;20025;-75
2021/09/19 11:46:45;;;;;;;5.35;1.52;;;22.20;63.80;;;;;;5019000;28;20025;-75
2021/09/19 11:49:11;;;;;;;2.47;1.23;;;22.30;62.80;;;;;;5054466;28;20043;-75
2021/09/19 11:51:40;;;;;;;1.20;1.00;;;22.20;63.60;;;;;;5020362;28;20029;-75
2021/09/19 11:54:05;;;;;;;2.22;1.30;;;22.30;63.60;;;;;;5054158;28;20063;-75
2021/09/19 11:56:32;;;;;;;2.28;0.95;;;22.40;63.80;;;;;;5053376;28;20045;-75
2021/09/19 11:58:58;;;;;;;1.35;1.17;;;22.50;63.40;;;;;;5020136;28;20059;-75
2021/09/19 12:01:26;;;;;;;1.13;1.00;;;22.70;62.20;;;;;;5036589;28;20064;-75
2021/09/19 12:03:52;;;;;;;1.08;0.98;;;22.80;62.00;;;;;;5036568;28;20044;-75
2021/09/19 12:06:18;;;;;;;1.70;1.30;;;22.90;60.80;;;;;;5054143;28;20137;-75
2021/09/19 12:08:44;;;;;;;1.27;0.90;;;23.00;58.90;;;;;;5036005;28;20111;-75
2021/09/19 12:11:11;;;;;;;1.02;0.80;;;23.00;59.30;;;;;;5036515;28;20044;-75
2021/09/19 12:13:39;;;;;;;1.90;1.00;;;23.00;59.10;;;;;;5052805;28;20501;-75
2021/09/19 12:16:11;;;;;;;0.88;0.80;;;23.10;58.90;;;;;;5036294;28;20039;-75
2021/09/19 12:18:42;;;;;;;0.90;0.90;;;23.10;58.20;;;;;;5053999;28;20033;-75
2021/09/19 12:21:10;;;;;;;0.98;0.88;;;23.10;57.30;;;;;;5035516;28;20024;-75
2021/09/19 12:23:49;;;;;;;0.82;0.77;;;23.00;57.70;;;;;;5036271;28;20070;-76
2021/09/19 12:26:21;;;;;;;0.75;0.60;;;22.90;57.40;;;;;;5054010;28;20021;-76
2021/09/19 12:28:53;;;;;;;1.35;0.60;;;23.00;57.70;;;;;;5036019;28;20028;-76
2021/09/19 12:31:39;;;;;;;1.25;0.80;;;22.90;57.50;;;;;;5036133;28;20124;-75
2021/09/19 12:34:08;;;;;;;0.70;0.70;;;22.90;57.50;;;;;;5035917;28;20060;-75
2021/09/19 12:36:51;;;;;;;3.15;0.90;;;22.90;58.00;;;;;;5035661;28;20017;-76
2021/09/19 12:39:21;;;;;;;1.02;0.60;;;22.90;57.70;;;;;;5035698;28;20592;-75
2021/09/19 12:41:50;;;;;;;1.08;0.75;;;22.80;58.00;;;;;;5035886;28;20029;-75
2021/09/19 12:44:17;;;;;;;;;;;22.80;57.10;;;;;;5053892;28;20048;-75
2021/09/19 12:46:57;;;;;;;1.83;0.90;;;22.70;57.60;;;;;;5035844;28;19905;-76
2021/09/19 12:49:31;;;;;;;1.05;0.95;;;22.60;58.40;;;;;;5035884;28;20029;-75
2021/09/19 12:52:07;;;;;;;1.15;1.08;;;22.70;59.10;;;;;;5053457;28;20489;-75